sensor_id;sensor_type;location;lat;lon;timestamp;P1;durP1;ratioP1;P2;durP2;ratioP2
38274;SDS011;24637;49.380;6.682;2022-08-01T00:00:33;1.15;;;1.00;;
38274;SDS011;24637;49.380;6.682;2022-08-01T00:02:58;1.50;;;0.95;;
38274;SDS011;24637;49.380;6.682;2022-08-01T00:05:24;3.05;;;1.20;;
38274;SDS011;24637;49.380;6.682;2022-08-01T00:07:49;1.20;;;1.10;;
38274;SDS011;24637;49.380;6.682;2022-08-01T00:10:15;1.23;;;1.00;;
38274;SDS011;24637;49.380;6.682;2022-08-01T00:12:42;1.45;;;1.00;;
38274;SDS011;24637;49.380;6.682;2022-08-01T00:15:09;1.10;;;1.00;;
38274;SDS011;24637;49.380;6.682;2022-08-01T00:17:36;1.25;;;1.00;;
38274;SDS011;24637;49.380;6.682;2022-08-01T00:20:02;1.30;;;1.02;;
38274;SDS011;24637;49.380;6.682;2022-08-01T00:22:30;1.30;;;1.00;;
38274;SDS011;24637;49.380;6.682;2022-08-01T00:25:00;1.50;;;0.88;;
38274;SDS011;24637;49.380;6.682;2022-08-01T00:27:26;1.13;;;1.00;;
38274;SDS011;24637;49.380;6.682;2022-08-01T00:29:51;2.33;;;0.93;;
38274;SDS011;24637;49.380;6.682;2022-08-01T00:32:17;1.20;;;0.90;;
38274;SDS011;24637;49.380;6.682;2022-08-01T00:34:42;1.75;;;1.00;;
38274;SDS011;24637;49.380;6.682;2022-08-01T00:37:07;1.83;;;1.08;;
38274;SDS011;24637;49.380;6.682;2022-08-01T00:39:33;2.55;;;1.10;;
38274;SDS011;24637;49.380;6.682;2022-08-01T00:41:59;1.17;;;0.93;;
38274;SDS011;24637;49.380;6.682;2022-08-01T00:44:25;1.73;;;1.20;;
38274;SDS011;24637;49.380;6.682;2022-08-01T00:46:51;3.33;;;1.27;;
38274;SDS011;24637;49.380;6.682;2022-08-01T00:49:16;5.32;;;1.05;;
38274;SDS011;24637;49.380;6.682;2022-08-01T00:51:42;1.70;;;1.10;;
38274;SDS011;24637;49.380;6.682;2022-08-01T00:54:07;2.03;;;1.27;;
38274;SDS011;24637;49.380;6.682;2022-08-01T00:56:33;3.05;;;1.10;;
38274;SDS011;24637;49.380;6.682;2022-08-01T00:58:58;3.90;;;1.25;;
38274;SDS011;24637;49.380;6.682;2022-08-01T01:01:24;3.10;;;1.02;;
38274;SDS011;24637;49.380;6.682;2022-08-01T01:03:50;1.63;;;1.02;;
38274;SDS011;24637;49.380;6.682;2022-08-01T01:11:37;1.50;;;1.40;;
38274;SDS011;24637;49.380;6.682;2022-08-01T01:15:04;5.13;;;1.45;;
38274;SDS011;24637;49.380;6.682;2022-08-01T01:17:16;1.20;;;1.10;;
38274;SDS011;24637;49.380;6.682;2022-08-01T01:19:48;6.68;;;1.40;;
38274;SDS011;24637;49.380;6.682;2022-08-01T01:22:23;2.97;;;1.30;;
38274;SDS011;24637;49.380;6.682;2022-08-01T01:25:04;1.98;;;1.10;;
38274;SDS011;24637;49.380;6.682;2022-08-01T01:30:28;1.88;;;1.33;;
38274;SDS011;24637;49.380;6.682;2022-08-01T01:32:57;2.40;;;1.10;;
38274;SDS011;24637;49.380;6.682;2022-08-01T01:35:27;1.05;;;0.98;;
38274;SDS011;24637;49.380;6.682;2022-08-01T01:38:04;1.88;;;1.35;;
38274;SDS011;24637;49.380;6.682;2022-08-01T01:40:32;2.35;;;1.30;;
38274;SDS011;24637;49.380;6.682;2022-08-01T01:42:58;2.75;;;1.33;;
38274;SDS011;24637;49.380;6.682;2022-08-01T01:45:24;2.15;;;1.23;;
38274;SDS011;24637;49.380;6.682;2022-08-01T01:47:51;3.20;;;1.45;;
38274;SDS011;24637;49.380;6.682;2022-08-01T01:50:20;1.70;;;1.23;;
38274;SDS011;24637;49.380;6.682;2022-08-01T01:52:46;1.45;;;1.25;;
38274;SDS011;24637;49.380;6.682;2022-08-01T01:55:16;1.92;;;1.45;;
38274;SDS011;24637;49.380;6.682;2022-08-01T01:57:46;1.98;;;1.23;;
38274;SDS011;24637;49.380;6.682;2022-08-01T02:00:16;2.83;;;1.40;;
38274;SDS011;24637;49.380;6.682;2022-08-01T02:02:42;2.47;;;1.13;;
38274;SDS011;24637;49.380;6.682;2022-08-01T02:05:10;2.67;;;1.33;;
38274;SDS011;24637;49.380;6.682;2022-08-01T02:07:37;2.08;;;1.30;;
38274;SDS011;24637;49.380;6.682;2022-08-01T02:10:04;1.48;;;1.15;;
38274;SDS011;24637;49.380;6.682;2022-08-01T02:12:33;1.45;;;1.25;;
38274;SDS011;24637;49.380;6.682;2022-08-01T02:15:01;2.05;;;1.45;;
38274;SDS011;24637;49.380;6.682;2022-08-01T02:17:28;1.55;;;1.13;;
38274;SDS011;24637;49.380;6.682;2022-08-01T02:19:55;2.78;;;1.50;;
38274;SDS011;24637;49.380;6.682;2022-08-01T02:22:29;3.85;;;1.50;;
38274;SDS011;24637;49.380;6.682;2022-08-01T02:25:20;1.20;;;1.10;;
38274;SDS011;24637;49.380;6.682;2022-08-01T02:28:23;2.30;;;1.38;;
38274;SDS011;24637;49.380;6.682;2022-08-01T02:30:54;2.10;;;1.38;;
38274;SDS011;24637;49.380;6.682;2022-08-01T02:33:27;1.40;;;1.30;;
38274;SDS011;24637;49.380;6.682;2022-08-01T02:36:03;3.63;;;1.55;;
38274;SDS011;24637;49.380;6.682;2022-08-01T02:38:31;2.33;;;1.40;;
38274;SDS011;24637;49.380;6.682;2022-08-01T02:40:59;2.33;;;1.42;;
38274;SDS011;24637;49.380;6.682;2022-08-01T02:43:30;4.15;;;1.45;;
38274;SDS011;24637;49.380;6.682;2022-08-01T02:45:59;2.97;;;1.27;;
38274;SDS011;24637;49.380;6.682;2022-08-01T02:48:27;2.17;;;1.25;;
38274;SDS011;24637;49.380;6.682;2022-08-01T02:50:58;3.65;;;1.27;;
38274;SDS011;24637;49.380;6.682;2022-08-01T02:53:26;1.48;;;1.20;;
38274;SDS011;24637;49.380;6.682;2022-08-01T02:55:55;1.88;;;1.48;;
38274;SDS011;24637;49.380;6.682;2022-08-01T02:58:23;2.10;;;1.35;;
38274;SDS011;24637;49.380;6.682;2022-08-01T03:00:49;2.08;;;1.50;;
38274;SDS011;24637;49.380;6.682;2022-08-01T03:03:15;1.60;;;1.50;;
38274;SDS011;24637;49.380;6.682;2022-08-01T03:05:42;1.80;;;1.40;;
38274;SDS011;24637;49.380;6.682;2022-08-01T03:08:08;1.42;;;1.15;;
38274;SDS011;24637;49.380;6.682;2022-08-01T03:10:36;3.33;;;1.50;;
38274;SDS011;24637;49.380;6.682;2022-08-01T03:13:04;4.22;;;1.40;;
38274;SDS011;24637;49.380;6.682;2022-08-01T03:15:33;2.08;;;1.45;;
38274;SDS011;24637;49.380;6.682;2022-08-01T03:18:02;4.82;;;1.40;;
38274;SDS011;24637;49.380;6.682;2022-08-01T03:20:30;2.08;;;1.40;;
38274;SDS011;24637;49.380;6.682;2022-08-01T03:22:57;2.22;;;1.40;;
38274;SDS011;24637;49.380;6.682;2022-08-01T03:25:30;3.08;;;1.60;;
38274;SDS011;24637;49.380;6.682;2022-08-01T03:27:58;2.70;;;1.30;;
38274;SDS011;24637;49.380;6.682;2022-08-01T03:30:27;1.75;;;1.15;;
38274;SDS011;24637;49.380;6.682;2022-08-01T03:32:54;2.70;;;1.40;;
38274;SDS011;24637;49.380;6.682;2022-08-01T03:35:21;1.80;;;1.50;;
38274;SDS011;24637;49.380;6.682;2022-08-01T03:37:52;3.83;;;1.60;;
38274;SDS011;24637;49.380;6.682;2022-08-01T03:40:27;7.32;;;1.23;;
38274;SDS011;24637;49.380;6.682;2022-08-01T03:43:02;1.98;;;1.58;;
38274;SDS011;24637;49.380;6.682;2022-08-01T03:45:31;2.25;;;1.30;;
38274;SDS011;24637;49.380;6.682;2022-08-01T03:48:02;2.33;;;1.50;;
38274;SDS011;24637;49.380;6.682;2022-08-01T03:50:32;1.70;;;1.45;;
38274;SDS011;24637;49.380;6.682;2022-08-01T03:53:00;1.63;;;1.35;;
38274;SDS011;24637;49.380;6.682;2022-08-01T03:55:27;3.47;;;1.55;;
38274;SDS011;24637;49.380;6.682;2022-08-01T03:57:55;2.85;;;1.80;;
38274;SDS011;24637;49.380;6.682;2022-08-01T04:00:21;2.95;;;1.60;;
38274;SDS011;24637;49.380;6.682;2022-08-01T04:02:49;2.15;;;1.30;;
38274;SDS011;24637;49.380;6.682;2022-08-01T04:05:15;1.88;;;1.40;;
38274;SDS011;24637;49.380;6.682;2022-08-01T04:07:45;1.98;;;1.40;;
38274;SDS011;24637;49.380;6.682;2022-08-01T04:10:20;2.58;;;1.40;;
38274;SDS011;24637;49.380;6.682;2022-08-01T04:12:49;2.10;;;1.38;;
38274;SDS011;24637;49.380;6.682;2022-08-01T04:15:14;1.52;;;1.20;;
38274;SDS011;24637;49.380;6.682;2022-08-01T04:17:43;2.97;;;1.60;;
38274;SDS011;24637;49.380;6.682;2022-08-01T04:20:09;2.20;;;1.27;;
38274;SDS011;24637;49.380;6.682;2022-08-01T04:22:36;4.32;;;1.60;;
38274;SDS011;24637;49.380;6.682;2022-08-01T04:25:01;3.08;;;1.40;;
38274;SDS011;24637;49.380;6.682;2022-08-01T04:27:40;1.83;;;1.33;;
38274;SDS011;24637;49.380;6.682;2022-08-01T04:30:10;2.25;;;1.35;;
38274;SDS011;24637;49.380;6.682;2022-08-01T04:32:38;1.77;;;1.50;;
38274;SDS011;24637;49.380;6.682;2022-08-01T04:35:06;3.97;;;1.50;;
38274;SDS011;24637;49.380;6.682;2022-08-01T04:37:36;2.58;;;1.42;;
38274;SDS011;24637;49.380;6.682;2022-08-01T04:40:04;1.98;;;1.67;;
38274;SDS011;24637;49.380;6.682;2022-08-01T04:42:32;3.03;;;1.60;;
38274;SDS011;24637;49.380;6.682;2022-08-01T04:44:58;3.25;;;1.70;;
38274;SDS011;24637;49.380;6.682;2022-08-01T04:47:25;1.92;;;1.42;;
38274;SDS011;24637;49.380;6.682;2022-08-01T04:49:51;7.15;;;1.45;;
38274;SDS011;24637;49.380;6.682;2022-08-01T04:52:16;4.07;;;1.77;;
38274;SDS011;24637;49.380;6.682;2022-08-01T04:54:42;2.38;;;1.40;;
38274;SDS011;24637;49.380;6.682;2022-08-01T04:57:08;3.05;;;1.42;;
38274;SDS011;24637;49.380;6.682;2022-08-01T04:59:35;2.80;;;1.50;;
38274;SDS011;24637;49.380;6.682;2022-08-01T05:02:18;1.90;;;1.48;;
38274;SDS011;24637;49.380;6.682;2022-08-01T05:04:44;2.75;;;1.63;;
38274;SDS011;24637;49.380;6.682;2022-08-01T05:07:10;2.28;;;1.35;;
38274;SDS011;24637;49.380;6.682;2022-08-01T05:09:37;1.73;;;1.40;;
38274;SDS011;24637;49.380;6.682;2022-08-01T05:12:06;2.50;;;1.40;;
38274;SDS011;24637;49.380;6.682;2022-08-01T05:14:32;3.17;;;1.60;;
38274;SDS011;24637;49.380;6.682;2022-08-01T05:16:59;3.38;;;1.65;;
38274;SDS011;24637;49.380;6.682;2022-08-01T05:19:28;2.58;;;1.55;;
38274;SDS011;24637;49.380;6.682;2022-08-01T05:21:57;3.45;;;1.40;;
38274;SDS011;24637;49.380;6.682;2022-08-01T05:24:23;3.50;;;1.42;;
38274;SDS011;24637;49.380;6.682;2022-08-01T05:26:49;2.13;;;1.20;;
38274;SDS011;24637;49.380;6.682;2022-08-01T05:29:17;3.53;;;1.65;;
38274;SDS011;24637;49.380;6.682;2022-08-01T05:31:42;3.03;;;1.52;;
38274;SDS011;24637;49.380;6.682;2022-08-01T05:34:07;6.32;;;1.45;;
38274;SDS011;24637;49.380;6.682;2022-08-01T05:36:33;3.42;;;1.45;;
38274;SDS011;24637;49.380;6.682;2022-08-01T05:38:58;3.00;;;1.48;;
38274;SDS011;24637;49.380;6.682;2022-08-01T05:41:23;3.40;;;1.73;;
38274;SDS011;24637;49.380;6.682;2022-08-01T05:43:49;1.67;;;1.40;;
38274;SDS011;24637;49.380;6.682;2022-08-01T05:46:15;6.95;;;1.70;;
38274;SDS011;24637;49.380;6.682;2022-08-01T05:48:40;1.77;;;1.38;;
38274;SDS011;24637;49.380;6.682;2022-08-01T05:51:05;2.00;;;1.60;;
38274;SDS011;24637;49.380;6.682;2022-08-01T05:53:31;2.72;;;1.35;;
38274;SDS011;24637;49.380;6.682;2022-08-01T05:55:59;1.85;;;1.30;;
38274;SDS011;24637;49.380;6.682;2022-08-01T05:58:24;2.25;;;1.58;;
38274;SDS011;24637;49.380;6.682;2022-08-01T06:00:50;2.40;;;1.30;;
38274;SDS011;24637;49.380;6.682;2022-08-01T06:03:16;3.22;;;1.10;;
38274;SDS011;24637;49.380;6.682;2022-08-01T06:05:41;2.13;;;1.30;;
38274;SDS011;24637;49.380;6.682;2022-08-01T06:08:06;1.30;;;1.20;;
38274;SDS011;24637;49.380;6.682;2022-08-01T06:10:32;1.73;;;1.25;;
38274;SDS011;24637;49.380;6.682;2022-08-01T06:12:57;1.55;;;1.02;;
38274;SDS011;24637;49.380;6.682;2022-08-01T06:15:28;2.33;;;1.02;;
38274;SDS011;24637;49.380;6.682;2022-08-01T06:17:54;2.65;;;1.27;;
38274;SDS011;24637;49.380;6.682;2022-08-01T06:20:19;1.73;;;1.10;;
38274;SDS011;24637;49.380;6.682;2022-08-01T06:22:45;2.50;;;1.15;;
38274;SDS011;24637;49.380;6.682;2022-08-01T06:25:10;1.20;;;1.10;;
38274;SDS011;24637;49.380;6.682;2022-08-01T06:27:35;1.05;;;0.90;;
38274;SDS011;24637;49.380;6.682;2022-08-01T06:30:01;2.55;;;1.10;;
38274;SDS011;24637;49.380;6.682;2022-08-01T06:32:27;1.45;;;1.05;;
38274;SDS011;24637;49.380;6.682;2022-08-01T06:34:54;2.13;;;1.00;;
38274;SDS011;24637;49.380;6.682;2022-08-01T06:37:19;1.17;;;0.80;;
38274;SDS011;24637;49.380;6.682;2022-08-01T06:39:46;2.28;;;0.85;;
38274;SDS011;24637;49.380;6.682;2022-08-01T06:42:11;3.97;;;1.05;;
38274;SDS011;24637;49.380;6.682;2022-08-01T06:44:37;5.50;;;1.00;;
38274;SDS011;24637;49.380;6.682;2022-08-01T06:47:02;4.40;;;1.30;;
38274;SDS011;24637;49.380;6.682;2022-08-01T06:49:28;8.30;;;1.10;;
38274;SDS011;24637;49.380;6.682;2022-08-01T06:51:53;3.95;;;1.23;;
38274;SDS011;24637;49.380;6.682;2022-08-01T06:54:18;6.47;;;1.80;;
38274;SDS011;24637;49.380;6.682;2022-08-01T06:56:44;4.70;;;1.48;;
38274;SDS011;24637;49.380;6.682;2022-08-01T06:59:09;8.90;;;1.63;;
38274;SDS011;24637;49.380;6.682;2022-08-01T07:01:35;4.57;;;2.17;;
38274;SDS011;24637;49.380;6.682;2022-08-01T07:04:01;7.07;;;1.48;;
38274;SDS011;24637;49.380;6.682;2022-08-01T07:06:27;11.55;;;1.98;;
38274;SDS011;24637;49.380;6.682;2022-08-01T07:08:52;4.28;;;1.83;;
38274;SDS011;24637;49.380;6.682;2022-08-01T07:11:18;3.63;;;1.55;;
38274;SDS011;24637;49.380;6.682;2022-08-01T07:13:44;4.38;;;1.85;;
38274;SDS011;24637;49.380;6.682;2022-08-01T07:16:14;6.57;;;2.17;;
38274;SDS011;24637;49.380;6.682;2022-08-01T07:18:40;7.10;;;1.60;;
38274;SDS011;24637;49.380;6.682;2022-08-01T07:21:06;9.73;;;1.50;;
38274;SDS011;24637;49.380;6.682;2022-08-01T07:23:32;9.68;;;1.73;;
38274;SDS011;24637;49.380;6.682;2022-08-01T07:25:57;8.45;;;4.07;;
38274;SDS011;24637;49.380;6.682;2022-08-01T07:28:32;8.27;;;2.47;;
38274;SDS011;24637;49.380;6.682;2022-08-01T07:30:57;4.00;;;2.20;;
38274;SDS011;24637;49.380;6.682;2022-08-01T07:33:22;1.92;;;1.50;;
38274;SDS011;24637;49.380;6.682;2022-08-01T07:35:48;2.78;;;1.60;;
38274;SDS011;24637;49.380;6.682;2022-08-01T07:38:13;4.45;;;1.30;;
38274;SDS011;24637;49.380;6.682;2022-08-01T07:40:41;4.28;;;1.40;;
38274;SDS011;24637;49.380;6.682;2022-08-01T07:43:07;2.97;;;1.02;;
38274;SDS011;24637;49.380;6.682;2022-08-01T07:45:33;1.63;;;1.20;;
38274;SDS011;24637;49.380;6.682;2022-08-01T07:48:02;5.90;;;1.30;;
38274;SDS011;24637;49.380;6.682;2022-08-01T07:50:31;4.32;;;1.10;;
38274;SDS011;24637;49.380;6.682;2022-08-01T07:52:57;3.63;;;1.13;;
38274;SDS011;24637;49.380;6.682;2022-08-01T07:55:23;4.38;;;1.10;;
38274;SDS011;24637;49.380;6.682;2022-08-01T07:57:52;1.67;;;1.10;;
38274;SDS011;24637;49.380;6.682;2022-08-01T08:00:20;5.60;;;1.35;;
38274;SDS011;24637;49.380;6.682;2022-08-01T08:02:45;3.10;;;2.80;;
38274;SDS011;24637;49.380;6.682;2022-08-01T08:05:11;7.35;;;6.20;;
38274;SDS011;24637;49.380;6.682;2022-08-01T08:07:37;5.80;;;5.22;;
38274;SDS011;24637;49.380;6.682;2022-08-01T08:10:03;7.80;;;7.03;;
38274;SDS011;24637;49.380;6.682;2022-08-01T08:12:29;5.88;;;5.28;;
38274;SDS011;24637;49.380;6.682;2022-08-01T08:14:54;2.95;;;2.63;;
38274;SDS011;24637;49.380;6.682;2022-08-01T08:17:23;2.50;;;2.30;;
38274;SDS011;24637;49.380;6.682;2022-08-01T08:19:49;2.25;;;1.75;;
38274;SDS011;24637;49.380;6.682;2022-08-01T08:22:14;2.65;;;1.60;;
38274;SDS011;24637;49.380;6.682;2022-08-01T08:24:40;1.70;;;1.33;;
38274;SDS011;24637;49.380;6.682;2022-08-01T08:27:05;2.30;;;1.40;;
38274;SDS011;24637;49.380;6.682;2022-08-01T08:29:32;2.85;;;1.45;;
38274;SDS011;24637;49.380;6.682;2022-08-01T08:32:01;4.85;;;1.60;;
38274;SDS011;24637;49.380;6.682;2022-08-01T08:34:27;2.80;;;1.40;;
38274;SDS011;24637;49.380;6.682;2022-08-01T08:36:53;2.45;;;1.50;;
38274;SDS011;24637;49.380;6.682;2022-08-01T08:39:20;1.65;;;1.30;;
38274;SDS011;24637;49.380;6.682;2022-08-01T08:41:46;1.90;;;1.40;;
38274;SDS011;24637;49.380;6.682;2022-08-01T08:44:12;1.77;;;1.60;;
38274;SDS011;24637;49.380;6.682;2022-08-01T08:46:40;3.03;;;1.40;;
38274;SDS011;24637;49.380;6.682;2022-08-01T08:49:07;1.58;;;1.27;;
38274;SDS011;24637;49.380;6.682;2022-08-01T08:51:34;1.90;;;1.42;;
38274;SDS011;24637;49.380;6.682;2022-08-01T08:54:02;3.30;;;1.50;;
38274;SDS011;24637;49.380;6.682;2022-08-01T08:56:29;2.17;;;1.65;;
38274;SDS011;24637;49.380;6.682;2022-08-01T08:58:59;2.38;;;1.75;;
38274;SDS011;24637;49.380;6.682;2022-08-01T09:01:28;1.42;;;1.33;;
38274;SDS011;24637;49.380;6.682;2022-08-01T09:03:53;1.77;;;1.40;;
38274;SDS011;24637;49.380;6.682;2022-08-01T09:06:19;1.50;;;1.40;;
38274;SDS011;24637;49.380;6.682;2022-08-01T09:08:45;1.73;;;1.40;;
38274;SDS011;24637;49.380;6.682;2022-08-01T09:11:11;1.55;;;1.30;;
38274;SDS011;24637;49.380;6.682;2022-08-01T09:13:36;1.48;;;1.38;;
38274;SDS011;24637;49.380;6.682;2022-08-01T09:16:02;1.75;;;1.48;;
38274;SDS011;24637;49.380;6.682;2022-08-01T09:18:37;6.70;;;1.58;;
38274;SDS011;24637;49.380;6.682;2022-08-01T09:23:43;1.30;;;1.20;;
38274;SDS011;24637;49.380;6.682;2022-08-01T09:26:15;1.40;;;1.30;;
38274;SDS011;24637;49.380;6.682;2022-08-01T09:28:43;1.27;;;1.15;;
38274;SDS011;24637;49.380;6.682;2022-08-01T09:31:10;1.73;;;1.30;;
38274;SDS011;24637;49.380;6.682;2022-08-01T09:33:56;1.35;;;1.17;;
38274;SDS011;24637;49.380;6.682;2022-08-01T09:36:24;1.20;;;1.10;;
38274;SDS011;24637;49.380;6.682;2022-08-01T09:38:51;1.65;;;1.00;;
38274;SDS011;24637;49.380;6.682;2022-08-01T09:41:17;1.45;;;1.00;;
38274;SDS011;24637;49.380;6.682;2022-08-01T09:43:54;2.28;;;1.05;;
38274;SDS011;24637;49.380;6.682;2022-08-01T09:46:20;1.33;;;1.15;;
38274;SDS011;24637;49.380;6.682;2022-08-01T09:48:59;8.40;;;7.70;;
38274;SDS011;24637;49.380;6.682;2022-08-01T09:51:30;12.23;;;11.23;;
38274;SDS011;24637;49.380;6.682;2022-08-01T09:54:02;4.93;;;4.53;;
38274;SDS011;24637;49.380;6.682;2022-08-01T09:59:02;2.20;;;2.00;;
38274;SDS011;24637;49.380;6.682;2022-08-01T10:01:47;3.70;;;3.40;;
38274;SDS011;24637;49.380;6.682;2022-08-01T10:04:20;13.70;;;12.30;;
38274;SDS011;24637;49.380;6.682;2022-08-01T10:06:48;19.15;;;17.05;;
38274;SDS011;24637;49.380;6.682;2022-08-01T10:09:26;26.20;;;23.35;;
38274;SDS011;24637;49.380;6.682;2022-08-01T10:11:54;15.55;;;13.85;;
38274;SDS011;24637;49.380;6.682;2022-08-01T10:14:20;9.75;;;7.32;;
38274;SDS011;24637;49.380;6.682;2022-08-01T10:16:49;7.30;;;6.63;;
38274;SDS011;24637;49.380;6.682;2022-08-01T10:19:17;7.93;;;7.22;;
38274;SDS011;24637;49.380;6.682;2022-08-01T10:21:44;5.88;;;5.32;;
38274;SDS011;24637;49.380;6.682;2022-08-01T10:24:14;4.63;;;4.00;;
38274;SDS011;24637;49.380;6.682;2022-08-01T10:26:41;3.58;;;3.28;;
38274;SDS011;24637;49.380;6.682;2022-08-01T10:29:08;3.33;;;3.00;;
38274;SDS011;24637;49.380;6.682;2022-08-01T10:31:34;3.20;;;2.90;;
38274;SDS011;24637;49.380;6.682;2022-08-01T10:34:01;3.08;;;2.78;;
38274;SDS011;24637;49.380;6.682;2022-08-01T10:36:27;4.32;;;2.92;;
38274;SDS011;24637;49.380;6.682;2022-08-01T10:38:56;3.33;;;3.03;;
38274;SDS011;24637;49.380;6.682;2022-08-01T10:41:22;3.75;;;2.60;;
38274;SDS011;24637;49.380;6.682;2022-08-01T10:43:49;3.17;;;2.88;;
38274;SDS011;24637;49.380;6.682;2022-08-01T10:46:17;3.78;;;3.45;;
38274;SDS011;24637;49.380;6.682;2022-08-01T10:51:29;3.97;;;3.60;;
38274;SDS011;24637;49.380;6.682;2022-08-01T10:53:56;3.90;;;3.47;;
38274;SDS011;24637;49.380;6.682;2022-08-01T10:56:22;3.80;;;3.45;;
38274;SDS011;24637;49.380;6.682;2022-08-01T10:58:48;3.92;;;3.53;;
38274;SDS011;24637;49.380;6.682;2022-08-01T11:01:23;3.33;;;3.00;;
38274;SDS011;24637;49.380;6.682;2022-08-01T11:06:26;3.92;;;3.40;;
38274;SDS011;24637;49.380;6.682;2022-08-01T11:09:02;3.53;;;3.22;;
38274;SDS011;24637;49.380;6.682;2022-08-01T11:11:56;3.65;;;3.35;;
38274;SDS011;24637;49.380;6.682;2022-08-01T11:14:30;4.45;;;3.28;;
38274;SDS011;24637;49.380;6.682;2022-08-01T11:17:01;3.47;;;3.17;;
38274;SDS011;24637;49.380;6.682;2022-08-01T11:20:03;3.70;;;3.35;;
38274;SDS011;24637;49.380;6.682;2022-08-01T11:22:29;3.22;;;2.90;;
38274;SDS011;24637;49.380;6.682;2022-08-01T11:24:55;3.30;;;3.10;;
38274;SDS011;24637;49.380;6.682;2022-08-01T11:27:26;3.00;;;2.78;;
38274;SDS011;24637;49.380;6.682;2022-08-01T11:32:50;3.45;;;3.15;;
38274;SDS011;24637;49.380;6.682;2022-08-01T11:35:18;3.65;;;3.10;;
38274;SDS011;24637;49.380;6.682;2022-08-01T11:37:46;3.83;;;3.30;;
38274;SDS011;24637;49.380;6.682;2022-08-01T11:40:22;3.72;;;3.38;;
38274;SDS011;24637;49.380;6.682;2022-08-01T11:42:50;3.20;;;2.90;;
38274;SDS011;24637;49.380;6.682;2022-08-01T11:45:52;2.60;;;2.40;;
38274;SDS011;24637;49.380;6.682;2022-08-01T11:48:25;3.28;;;2.60;;
38274;SDS011;24637;49.380;6.682;2022-08-01T11:50:52;3.22;;;2.42;;
38274;SDS011;24637;49.380;6.682;2022-08-01T11:53:19;2.80;;;2.60;;
38274;SDS011;24637;49.380;6.682;2022-08-01T11:55:45;2.60;;;2.40;;
38274;SDS011;24637;49.380;6.682;2022-08-01T11:58:13;3.35;;;2.92;;
38274;SDS011;24637;49.380;6.682;2022-08-01T12:00:40;3.05;;;2.60;;
38274;SDS011;24637;49.380;6.682;2022-08-01T12:03:06;2.60;;;2.40;;
38274;SDS011;24637;49.380;6.682;2022-08-01T12:05:34;3.28;;;2.63;;
38274;SDS011;24637;49.380;6.682;2022-08-01T12:08:02;4.32;;;2.25;;
38274;SDS011;24637;49.380;6.682;2022-08-01T12:10:30;3.38;;;2.40;;
38274;SDS011;24637;49.380;6.682;2022-08-01T12:13:03;2.80;;;2.22;;
38274;SDS011;24637;49.380;6.682;2022-08-01T12:15:32;2.70;;;2.50;;
38274;SDS011;24637;49.380;6.682;2022-08-01T12:18:00;2.50;;;2.30;;
38274;SDS011;24637;49.380;6.682;2022-08-01T12:20:30;2.10;;;1.83;;
38274;SDS011;24637;49.380;6.682;2022-08-01T12:23:06;2.22;;;2.03;;
38274;SDS011;24637;49.380;6.682;2022-08-01T12:25:34;2.38;;;2.00;;
38274;SDS011;24637;49.380;6.682;2022-08-01T12:28:01;2.20;;;2.00;;
38274;SDS011;24637;49.380;6.682;2022-08-01T12:30:28;2.15;;;1.95;;
38274;SDS011;24637;49.380;6.682;2022-08-01T12:32:55;2.38;;;2.17;;
38274;SDS011;24637;49.380;6.682;2022-08-01T12:35:23;2.40;;;2.20;;
38274;SDS011;24637;49.380;6.682;2022-08-01T12:37:51;2.30;;;2.10;;
38274;SDS011;24637;49.380;6.682;2022-08-01T12:40:20;2.28;;;2.08;;
38274;SDS011;24637;49.380;6.682;2022-08-01T12:42:51;3.38;;;1.90;;
38274;SDS011;24637;49.380;6.682;2022-08-01T12:45:19;1.80;;;1.70;;
38274;SDS011;24637;49.380;6.682;2022-08-01T12:47:46;1.90;;;1.80;;
38274;SDS011;24637;49.380;6.682;2022-08-01T12:50:14;2.30;;;2.10;;
38274;SDS011;24637;49.380;6.682;2022-08-01T12:52:41;1.92;;;1.73;;
38274;SDS011;24637;49.380;6.682;2022-08-01T12:57:35;1.90;;;1.70;;
38274;SDS011;24637;49.380;6.682;2022-08-01T13:00:05;2.38;;;1.77;;
38274;SDS011;24637;49.380;6.682;2022-08-01T13:02:33;2.33;;;2.13;;
38274;SDS011;24637;49.380;6.682;2022-08-01T13:05:00;2.20;;;1.90;;
38274;SDS011;24637;49.380;6.682;2022-08-01T13:10:10;1.77;;;1.67;;
38274;SDS011;24637;49.380;6.682;2022-08-01T13:12:36;2.03;;;1.58;;
38274;SDS011;24637;49.380;6.682;2022-08-01T13:15:18;1.90;;;1.80;;
38274;SDS011;24637;49.380;6.682;2022-08-01T13:17:46;1.70;;;1.60;;
38274;SDS011;24637;49.380;6.682;2022-08-01T13:20:20;1.60;;;1.50;;
38274;SDS011;24637;49.380;6.682;2022-08-01T13:22:50;2.13;;;1.55;;
38274;SDS011;24637;49.380;6.682;2022-08-01T13:25:16;1.85;;;1.63;;
38274;SDS011;24637;49.380;6.682;2022-08-01T13:27:42;2.20;;;1.90;;
38274;SDS011;24637;49.380;6.682;2022-08-01T13:30:20;1.70;;;1.45;;
38274;SDS011;24637;49.380;6.682;2022-08-01T13:32:58;2.10;;;1.90;;
38274;SDS011;24637;49.380;6.682;2022-08-01T13:35:25;1.30;;;1.20;;
38274;SDS011;24637;49.380;6.682;2022-08-01T13:37:51;1.85;;;1.33;;
38274;SDS011;24637;49.380;6.682;2022-08-01T13:40:26;3.75;;;1.70;;
38274;SDS011;24637;49.380;6.682;2022-08-01T13:42:53;3.13;;;1.60;;
38274;SDS011;24637;49.380;6.682;2022-08-01T13:45:21;2.90;;;1.60;;
38274;SDS011;24637;49.380;6.682;2022-08-01T13:47:47;1.40;;;1.30;;
38274;SDS011;24637;49.380;6.682;2022-08-01T13:50:12;1.52;;;1.42;;
38274;SDS011;24637;49.380;6.682;2022-08-01T13:52:37;1.75;;;1.23;;
38274;SDS011;24637;49.380;6.682;2022-08-01T13:55:03;1.77;;;1.38;;
38274;SDS011;24637;49.380;6.682;2022-08-01T13:57:28;2.90;;;1.48;;
38274;SDS011;24637;49.380;6.682;2022-08-01T13:59:54;1.08;;;0.98;;
38274;SDS011;24637;49.380;6.682;2022-08-01T14:02:20;1.50;;;1.40;;
38274;SDS011;24637;49.380;6.682;2022-08-01T14:04:45;1.27;;;1.15;;
38274;SDS011;24637;49.380;6.682;2022-08-01T14:07:11;1.30;;;1.20;;
38274;SDS011;24637;49.380;6.682;2022-08-01T14:09:37;1.13;;;1.10;;
38274;SDS011;24637;49.380;6.682;2022-08-01T14:12:02;1.30;;;1.20;;
38274;SDS011;24637;49.380;6.682;2022-08-01T14:14:29;1.35;;;1.25;;
38274;SDS011;24637;49.380;6.682;2022-08-01T14:16:55;1.60;;;1.25;;
38274;SDS011;24637;49.380;6.682;2022-08-01T14:19:20;1.40;;;1.30;;
38274;SDS011;24637;49.380;6.682;2022-08-01T14:21:46;1.20;;;1.10;;
38274;SDS011;24637;49.380;6.682;2022-08-01T14:24:14;1.73;;;1.23;;
38274;SDS011;24637;49.380;6.682;2022-08-01T14:26:39;1.17;;;1.08;;
38274;SDS011;24637;49.380;6.682;2022-08-01T14:29:04;1.30;;;1.20;;
38274;SDS011;24637;49.380;6.682;2022-08-01T14:31:30;2.33;;;1.38;;
38274;SDS011;24637;49.380;6.682;2022-08-01T14:33:55;1.20;;;1.10;;
38274;SDS011;24637;49.380;6.682;2022-08-01T14:36:21;1.50;;;1.20;;
38274;SDS011;24637;49.380;6.682;2022-08-01T14:38:46;1.05;;;1.00;;
38274;SDS011;24637;49.380;6.682;2022-08-01T14:41:12;1.77;;;1.10;;
38274;SDS011;24637;49.380;6.682;2022-08-01T14:43:40;1.20;;;1.10;;
38274;SDS011;24637;49.380;6.682;2022-08-01T14:46:06;1.10;;;0.95;;
38274;SDS011;24637;49.380;6.682;2022-08-01T14:48:34;4.25;;;1.20;;
38274;SDS011;24637;49.380;6.682;2022-08-01T14:51:00;1.40;;;1.10;;
38274;SDS011;24637;49.380;6.682;2022-08-01T14:53:27;0.88;;;0.88;;
38274;SDS011;24637;49.380;6.682;2022-08-01T14:55:53;1.27;;;1.00;;
38274;SDS011;24637;49.380;6.682;2022-08-01T14:58:18;1.08;;;0.98;;
38274;SDS011;24637;49.380;6.682;2022-08-01T15:00:44;1.90;;;0.95;;
38274;SDS011;24637;49.380;6.682;2022-08-01T15:03:09;1.80;;;1.00;;
38274;SDS011;24637;49.380;6.682;2022-08-01T15:05:34;0.90;;;0.80;;
38274;SDS011;24637;49.380;6.682;2022-08-01T15:08:01;1.08;;;0.85;;
38274;SDS011;24637;49.380;6.682;2022-08-01T15:10:26;0.88;;;0.80;;
38274;SDS011;24637;49.380;6.682;2022-08-01T15:12:52;1.42;;;0.90;;
38274;SDS011;24637;49.380;6.682;2022-08-01T15:15:17;2.17;;;0.90;;
38274;SDS011;24637;49.380;6.682;2022-08-01T15:17:44;0.95;;;0.90;;
38274;SDS011;24637;49.380;6.682;2022-08-01T15:20:10;1.00;;;0.93;;